Time;durP1;ratioP1;P1;durP2;ratioP2;P2;SDS_P1;SDS_P2;PMS_P1;PMS_P2;Temp;Humidity;BMP_temperature;BMP_pressure;BME280_temperature;BME280_humidity;BME280_pressure;Samples;Min_cycle;Max_cycle;Signal;HPM_P1;HPM_P2
2021/12/05 00:22:27;;;;;;;12.48;6.75;;;4.00;99.90;;;;;;5155909;27;20133;-76
2021/12/05 00:24:58;;;;;;;12.68;6.75;;;4.00;99.90;;;;;;5155345;27;20526;-76
2021/12/05 00:27:29;;;;;;;;;;;4.10;99.90;;;;;;5156671;27;20047;-76
2021/12/05 00:43:25;;;;;;;14.25;7.85;;;4.00;99.90;;;;;;5155984;27;20042;-76
2021/12/05 00:56:39;;;;;;;13.52;8.18;;;4.00;99.90;;;;;;5155009;27;20047;-75
2021/12/05 01:02:15;;;;;;;18.85;9.35;;;4.00;99.90;;;;;;5153619;27;20099;-76
2021/12/05 01:07:39;;;;;;;18.45;9.55;;;4.10;99.90;;;;;;5136881;27;20054;-76
2021/12/05 01:12:42;;;;;;;20.58;10.35;;;4.00;99.90;;;;;;5154613;27;20050;-74
2021/12/05 01:15:14;;;;;;;16.13;9.57;;;4.00;99.90;;;;;;5155055;27;20046;-75
2021/12/05 01:20:18;;;;;;;19.35;9.55;;;4.00;99.90;;;;;;5136548;27;20114;-76
2021/12/05 01:22:53;;;;;;;17.40;10.00;;;4.00;99.90;;;;;;5136272;27;20130;-75
2021/12/05 01:25:42;;;;;;;25.00;10.20;;;4.00;99.90;;;;;;5154695;27;20042;-75
2021/12/05 01:28:47;;;;;;;21.92;12.27;;;4.00;99.90;;;;;;5154836;27;20100;-75
2021/12/05 01:31:31;;;;;;;21.23;12.20;;;4.00;99.90;;;;;;5136627;27;20047;-76
2021/12/05 01:34:13;;;;;;;28.33;14.35;;;4.00;99.90;;;;;;5136001;27;20050;-75
2021/12/05 02:30:34;;;;;;;27.80;15.52;;;4.20;99.90;;;;;;5153875;27;20065;-75
2021/12/05 02:41:19;;;;;;;25.95;14.63;;;4.20;99.90;;;;;;5153557;27;20047;-76
2021/12/05 02:44:00;;;;;;;26.33;14.93;;;4.20;99.90;;;;;;5127078;28;20602;-76
2021/12/05 02:46:20;;;;;;;20.92;13.32;;;4.20;99.90;;;;;;5132951;27;20051;-76
2021/12/05 02:48:46;;;;;;;27.48;13.10;;;4.20;99.90;;;;;;5134979;27;20043;-75
2021/12/05 02:51:24;;;;;;;24.27;12.60;;;4.20;99.90;;;;;;5135397;27;20497;-75
2021/12/05 02:54:01;;;;;;;23.92;12.52;;;4.20;99.90;;;;;;5132677;28;20376;-75
2021/12/05 02:56:31;;;;;;;22.65;13.07;;;4.30;99.90;;;;;;5136768;27;20038;-76
2021/12/05 02:59:04;;;;;;;20.75;12.27;;;4.20;99.90;;;;;;5135232;27;20042;-76
2021/12/05 03:01:38;;;;;;;20.77;10.75;;;4.20;99.90;;;;;;5153749;27;20039;-76
2021/12/05 03:04:05;;;;;;;23.75;12.15;;;4.20;99.90;;;;;;5152618;27;20042;-75
2021/12/05 03:06:32;;;;;;;20.48;10.60;;;4.20;99.90;;;;;;5153371;27;20479;-76
2021/12/05 03:09:09;;;;;;;19.95;10.45;;;4.20;99.90;;;;;;5134938;27;20047;-76
2021/12/05 03:11:36;;;;;;;22.23;9.68;;;4.20;99.90;;;;;;5153502;27;20042;-76
2021/12/05 03:14:02;;;;;;;21.08;9.27;;;4.20;99.90;;;;;;5152365;27;20050;-76
2021/12/05 03:16:30;;;;;;;17.73;9.07;;;4.10;99.90;;;;;;5152629;27;20517;-76
2021/12/05 03:18:55;;;;;;;15.18;8.98;;;4.10;99.90;;;;;;5153075;27;20049;-76
2021/12/05 03:21:22;;;;;;;16.10;8.68;;;4.10;99.90;;;;;;5153370;27;20126;-76
2021/12/05 03:23:50;;;;;;;17.85;8.70;;;4.10;99.90;;;;;;5134442;27;20051;-74
2021/12/05 03:26:21;;;;;;;12.82;8.18;;;4.10;99.90;;;;;;5156049;27;20613;-76
2021/12/05 03:28:50;;;;;;;19.60;8.20;;;4.10;99.90;;;;;;5157180;27;20050;-73
2021/12/05 03:31:17;;;;;;;24.25;8.50;;;4.00;99.90;;;;;;5138670;27;20043;-77
2021/12/05 03:33:43;;;;;;;17.63;7.75;;;4.00;99.90;;;;;;5156360;27;20042;-76
2021/12/05 03:36:10;;;;;;;17.75;7.95;;;3.90;99.90;;;;;;5156572;27;20039;-77
2021/12/05 03:38:37;;;;;;;16.50;7.97;;;4.00;99.90;;;;;;5156820;27;20046;-76
2021/12/05 03:41:04;;;;;;;16.60;8.32;;;4.00;99.90;;;;;;5155879;27;20509;-76
2021/12/05 03:43:30;;;;;;;15.50;8.60;;;3.90;99.90;;;;;;5157012;27;20125;-76
2021/12/05 03:45:58;;;;;;;15.23;7.72;;;3.90;99.90;;;;;;5155698;27;20051;-75
2021/12/05 03:48:27;;;;;;;17.20;8.43;;;4.00;99.90;;;;;;5156580;27;20054;-76
2021/12/05 03:50:53;;;;;;;16.63;6.97;;;3.90;99.90;;;;;;5156005;27;20072;-75
2021/12/05 03:53:19;;;;;;;15.38;7.45;;;3.90;99.90;;;;;;5156644;27;20049;-76
2021/12/05 03:55:48;;;;;;;17.30;7.82;;;3.90;99.90;;;;;;5138242;27;20045;-76
2021/12/05 03:58:15;;;;;;;16.23;7.80;;;3.80;99.90;;;;;;5156051;27;20111;-76
2021/12/05 04:00:45;;;;;;;17.67;7.47;;;3.80;99.90;;;;;;5156718;27;20086;-76
2021/12/05 04:03:13;;;;;;;17.40;7.70;;;3.80;99.90;;;;;;5155710;27;20219;-76
2021/12/05 04:05:39;;;;;;;19.63;8.18;;;3.70;99.90;;;;;;5156087;27;20118;-76
2021/12/05 04:08:08;;;;;;;14.25;7.63;;;3.70;99.90;;;;;;5137683;27;20055;-76
2021/12/05 04:10:43;;;;;;;16.45;7.53;;;3.70;99.90;;;;;;5155929;27;20430;-76
2021/12/05 04:13:09;;;;;;;18.60;7.45;;;3.60;99.90;;;;;;5155684;27;20099;-76
2021/12/05 04:15:36;;;;;;;18.10;7.60;;;3.60;99.90;;;;;;5156110;27;20039;-76
2021/12/05 04:18:02;;;;;;;17.35;7.72;;;3.50;99.90;;;;;;5155403;27;20051;-76
2021/12/05 04:20:28;;;;;;;18.15;7.70;;;3.50;99.90;;;;;;5155980;27;20490;-76
2021/12/05 04:22:55;;;;;;;12.52;7.60;;;3.50;99.90;;;;;;5137482;27;20479;-73
2021/12/05 04:25:21;;;;;;;15.50;7.63;;;3.50;99.90;;;;;;5137332;27;20047;-76
2021/12/05 04:27:49;;;;;;;17.48;7.38;;;3.40;99.90;;;;;;5155779;27;20499;-76
2021/12/05 04:30:17;;;;;;;18.38;7.10;;;3.40;99.90;;;;;;5136622;27;20047;-76
2021/12/05 04:32:43;;;;;;;16.70;7.32;;;3.30;99.90;;;;;;5156014;27;20039;-76
2021/12/05 04:35:09;;;;;;;21.80;8.52;;;3.40;99.90;;;;;;5154967;27;20050;-76
2021/12/05 04:37:35;;;;;;;15.75;7.38;;;3.30;99.90;;;;;;5155497;27;20075;-76
2021/12/05 04:40:03;;;;;;;16.08;8.05;;;3.20;99.90;;;;;;5155090;27;20121;-75
2021/12/05 04:42:29;;;;;;;17.08;7.03;;;3.20;99.90;;;;;;5156191;27;20094;-76
2021/12/05 04:44:55;;;;;;;15.93;6.95;;;3.20;99.90;;;;;;5155294;27;20051;-74
2021/12/05 04:47:21;;;;;;;14.50;7.13;;;3.20;99.90;;;;;;5155189;27;21912;-76
2021/12/05 04:49:47;;;;;;;17.17;7.32;;;3.20;99.90;;;;;;5155335;27;20051;-76
2021/12/05 04:52:14;;;;;;;16.25;7.20;;;3.20;99.90;;;;;;5155033;27;20058;-76
2021/12/05 04:54:40;;;;;;;20.67;7.22;;;3.20;99.90;;;;;;5155281;27;20047;-76
2021/12/05 04:57:06;;;;;;;18.02;7.22;;;3.30;99.90;;;;;;5154994;27;20038;-75
2021/12/05 04:59:36;;;;;;;16.02;6.85;;;3.20;99.90;;;;;;5154794;27;20082;-76
2021/12/05 05:02:05;;;;;;;17.38;6.95;;;3.20;99.90;;;;;;5154913;27;20046;-75
2021/12/05 05:04:37;;;;;;;20.75;8.02;;;3.20;99.90;;;;;;5136785;27;20371;-76
2021/12/05 05:07:07;;;;;;;20.77;7.35;;;3.20;99.90;;;;;;5154770;27;20046;-76
2021/12/05 05:09:33;;;;;;;15.85;7.30;;;3.20;99.90;;;;;;5154585;27;20069;-76
2021/12/05 05:11:59;;;;;;;15.98;6.85;;;3.20;99.90;;;;;;5154889;27;20047;-73
2021/12/05 05:14:26;;;;;;;18.30;6.25;;;3.20;99.90;;;;;;5154802;27;20407;-76
2021/12/05 05:16:54;;;;;;;14.52;6.28;;;3.20;99.90;;;;;;5155168;27;20120;-76
2021/12/05 05:19:25;;;;;;;15.43;6.50;;;3.20;99.90;;;;;;5154301;27;20125;-76
2021/12/05 05:22:02;;;;;;;15.88;6.65;;;3.20;99.90;;;;;;5136400;27;20074;-76
2021/12/05 05:27:30;;;;;;;16.67;6.93;;;3.20;99.90;;;;;;5154773;27;20051;-73
2021/12/05 05:48:32;;;;;;;21.05;6.72;;;3.10;99.90;;;;;;5151146;27;20114;-76
2021/12/05 05:50:59;;;;;;;19.23;6.70;;;3.10;99.90;;;;;;5154293;27;20091;-76
2021/12/05 05:53:25;;;;;;;12.77;5.72;;;3.10;99.90;;;;;;5153943;27;20043;-76
2021/12/05 05:55:53;;;;;;;16.50;6.57;;;3.10;99.90;;;;;;5135611;27;20042;-76
2021/12/05 05:58:24;;;;;;;17.75;6.50;;;3.20;99.90;;;;;;5153683;27;20548;-76
2021/12/05 06:01:17;;;;;;;16.13;6.88;;;3.20;99.90;;;;;;5154418;27;20061;-76
2021/12/05 06:03:38;;;;;;;16.70;6.95;;;3.20;99.90;;;;;;5153311;27;20441;-76
2021/12/05 06:06:11;;;;;;;15.70;6.70;;;3.20;99.90;;;;;;5153531;27;20043;-74
2021/12/05 06:08:42;;;;;;;17.85;7.63;;;3.30;99.90;;;;;;5135872;27;20192;-76
2021/12/05 06:11:12;;;;;;;21.80;7.38;;;3.20;99.90;;;;;;5153389;27;20502;-75
2021/12/05 06:13:39;;;;;;;20.73;7.85;;;3.30;99.90;;;;;;5154199;27;20086;-76
2021/12/05 06:16:07;;;;;;;17.45;6.85;;;3.30;99.90;;;;;;5153782;27;20049;-74
2021/12/05 06:18:33;;;;;;;15.82;8.15;;;3.30;99.90;;;;;;5135239;27;20126;-76
2021/12/05 06:20:59;;;;;;;19.98;8.45;;;3.40;99.90;;;;;;5115631;28;20130;-77
2021/12/05 06:23:26;;;;;;;19.08;8.70;;;3.40;99.90;;;;;;5136603;27;20031;-76
2021/12/05 06:25:53;;;;;;;20.80;8.68;;;3.40;99.90;;;;;;5154100;27;20121;-77
2021/12/05 06:29:08;;;;;;;17.10;8.23;;;3.40;99.90;;;;;;5135092;27;20051;-77
2021/12/05 06:31:49;;;;;;;16.48;8.00;;;3.50;99.90;;;;;;5142073;27;20473;-76
2021/12/05 06:42:35;;;;;;;19.60;9.00;;;3.60;99.90;;;;;;5153990;27;20046;-77
2021/12/05 06:47:45;;;;;;;18.90;9.07;;;3.60;99.90;;;;;;5154012;27;20080;-76
2021/12/05 06:50:11;;;;;;;17.55;8.98;;;3.70;99.90;;;;;;5153287;27;20047;-74
2021/12/05 06:52:37;;;;;;;18.88;9.15;;;3.70;99.90;;;;;;5154029;27;20053;-76
2021/12/05 06:55:03;;;;;;;17.15;8.30;;;3.70;99.90;;;;;;5135336;27;20051;-77
2021/12/05 06:57:29;;;;;;;22.55;9.27;;;3.70;99.90;;;;;;5134262;27;20099;-76
2021/12/05 06:59:55;;;;;;;14.80;8.35;;;3.70;99.90;;;;;;5136192;27;20123;-76
2021/12/05 07:02:21;;;;;;;20.65;9.00;;;3.70;99.90;;;;;;5156924;27;20103;-75
2021/12/05 07:05:16;;;;;;;22.75;10.30;;;3.80;99.90;;;;;;5139123;27;20043;-76
2021/12/05 07:07:43;;;;;;;20.05;9.30;;;3.80;99.90;;;;;;5138929;27;20062;-76
2021/12/05 07:10:10;;;;;;;20.25;9.82;;;3.80;99.90;;;;;;5157289;27;20042;-77
2021/12/05 07:15:39;;;;;;;17.58;9.43;;;3.80;99.90;;;;;;5152280;27;20050;-76
2021/12/05 07:23:54;;;;;;;19.70;10.65;;;3.90;99.90;;;;;;5155941;27;20043;-77
2021/12/05 07:26:29;;;;;;;19.42;9.80;;;3.90;99.90;;;;;;5156636;27;20457;-77
2021/12/05 07:42:40;;;;;;;17.23;9.13;;;4.00;99.90;;;;;;5155968;27;20095;-76
2021/12/05 07:45:07;;;;;;;16.85;8.73;;;4.00;99.90;;;;;;5156748;27;20496;-76
2021/12/05 07:47:34;;;;;;;19.00;8.75;;;4.00;99.90;;;;;;5155766;27;20047;-77
2021/12/05 07:50:09;;;;;;;18.58;9.25;;;4.00;99.90;;;;;;5138792;27;20054;-77
2021/12/05 07:52:40;;;;;;;22.23;9.50;;;4.10;99.90;;;;;;5155937;27;20050;-76
2021/12/05 07:55:17;;;;;;;16.73;9.38;;;4.00;99.90;;;;;;5156857;27;20039;-76
2021/12/05 08:16:48;;;;;;;20.48;8.70;;;4.20;99.90;;;;;;5155785;27;20483;-76
2021/12/05 08:19:14;;;;;;;18.63;8.50;;;4.20;99.90;;;;;;5155396;27;20491;-76
2021/12/05 08:21:40;;;;;;;15.52;8.68;;;4.20;99.90;;;;;;5155352;27;20050;-76
2021/12/05 08:24:06;;;;;;;14.15;8.60;;;4.20;99.90;;;;;;5155844;27;20053;-76
2021/12/05 08:26:34;;;;;;;15.50;8.60;;;4.20;99.90;;;;;;5155193;27;20038;-76
2021/12/05 08:29:14;;;;;;;15.00;7.85;;;4.30;99.90;;;;;;5155742;27;20034;-77
2021/12/05 08:42:34;;;;;;;17.13;8.32;;;4.30;99.90;;;;;;5135034;27;20054;-78
2021/12/05 09:28:43;;;;;;;15.23;7.47;;;4.60;99.90;;;;;;5151379;27;20495;-78
2021/12/05 10:20:17;;;;;;;12.10;7.10;;;4.70;99.90;;;;;;5153165;27;20539;-78
2021/12/05 10:34:42;;;;;;;11.05;6.60;;;4.90;99.90;;;;;;5145118;27;20208;-79
2021/12/05 10:37:18;;;;;;;11.60;6.53;;;4.90;99.90;;;;;;5147317;27;20031;-78
2021/12/05 10:39:45;;;;;;;9.88;6.75;;;5.00;99.90;;;;;;5146256;27;20050;-77
2021/12/05 10:42:42;;;;;;;9.32;6.72;;;5.00;99.90;;;;;;5151254;27;20050;-77
2021/12/05 10:45:31;;;;;;;12.75;6.43;;;5.00;99.90;;;;;;5144675;27;20054;-77
2021/12/05 10:48:00;;;;;;;10.48;6.40;;;5.10;99.90;;;;;;5138222;27;20090;-77
2021/12/05 10:50:30;;;;;;;8.77;5.68;;;5.10;99.90;;;;;;5157968;27;20054;-77
2021/12/05 10:53:30;;;;;;;8.70;6.07;;;5.20;99.90;;;;;;5141588;27;20394;-77
2021/12/05 10:56:24;;;;;;;11.85;6.53;;;5.30;99.90;;;;;;5156989;27;20051;-77
2021/12/05 10:58:58;;;;;;;9.73;6.13;;;5.30;99.90;;;;;;5156072;27;20091;-77
2021/12/05 11:01:27;;;;;;;12.23;6.22;;;5.40;99.90;;;;;;5127805;27;20491;-78
2021/12/05 11:04:24;;;;;;;11.00;5.88;;;5.50;99.90;;;;;;5156896;27;20082;-78
2021/12/05 11:06:56;;;;;;;11.90;5.85;;;5.50;99.90;;;;;;5124794;27;20099;-77
2021/12/05 11:09:25;;;;;;;9.68;5.43;;;5.50;99.90;;;;;;5157032;27;20050;-78
2021/12/05 11:12:00;;;;;;;10.15;5.78;;;5.60;99.90;;;;;;5152749;27;20050;-77
2021/12/05 11:14:32;;;;;;;6.30;4.93;;;5.60;99.90;;;;;;5135681;27;20043;-78
2021/12/05 11:17:02;;;;;;;8.48;5.18;;;5.60;99.90;;;;;;5156171;27;20157;-83
2021/12/05 11:19:31;;;;;;;9.57;5.40;;;5.60;99.90;;;;;;5119216;27;20046;-85
2021/12/05 11:22:15;;;;;;;9.40;5.28;;;5.60;99.90;;;;;;5145681;27;20270;-82
2021/12/05 11:24:51;;;;;;;6.70;5.00;;;5.60;99.90;;;;;;5120628;27;20122;-83
2021/12/05 11:27:27;;;;;;;9.35;5.38;;;5.60;99.90;;;;;;5133743;27;20108;-77
2021/12/05 11:30:03;;;;;;;8.05;5.32;;;5.60;99.90;;;;;;5154101;27;20068;-84
2021/12/05 11:32:33;;;;;;;8.75;4.57;;;5.60;99.90;;;;;;5152545;27;20494;-83
2021/12/05 11:35:10;;;;;;;;;;;5.60;99.90;;;;;;5133162;27;20046;-80
2021/12/05 11:37:54;;;;;;;8.18;4.85;;;5.60;99.90;;;;;;5155483;27;20447;-83
2021/12/05 11:40:21;;;;;;;7.95;4.72;;;5.60;99.90;;;;;;5156435;27;20046;-76
2021/12/05 11:43:04;;;;;;;8.23;4.95;;;5.60;99.90;;;;;;5138108;27;20047;-76
2021/12/05 11:45:47;;;;;;;8.10;4.53;;;5.60;99.90;;;;;;5155623;27;20478;-80
2021/12/05 11:48:27;;;;;;;6.18;4.43;;;5.60;99.90;;;;;;5156438;27;20560;-75
2021/12/05 11:50:53;;;;;;;6.15;4.72;;;5.70;99.90;;;;;;5154283;27;20078;-79
2021/12/05 11:53:53;;;;;;;8.57;4.63;;;5.60;99.90;;;;;;5119989;27;20114;-83
2021/12/05 11:56:42;;;;;;;7.05;4.75;;;5.60;99.90;;;;;;5137765;27;20051;-78
2021/12/05 11:59:25;;;;;;;6.35;4.43;;;5.60;99.90;;;;;;5119886;27;20046;-79
2021/12/05 12:01:57;;;;;;;4.63;4.07;;;5.70;99.90;;;;;;5156124;27;20054;-83
2021/12/05 12:04:36;;;;;;;5.82;4.45;;;5.70;99.90;;;;;;5138014;27;20134;-80
2021/12/05 12:07:26;;;;;;;10.35;4.10;;;5.70;99.90;;;;;;5151678;27;20043;-78
2021/12/05 12:10:00;;;;;;;5.90;4.28;;;5.60;99.90;;;;;;5150808;27;20071;-79
2021/12/05 12:12:26;;;;;;;6.05;4.25;;;5.60;99.90;;;;;;5150744;27;20049;-78
2021/12/05 12:14:52;;;;;;;5.68;4.25;;;5.60;99.90;;;;;;5155431;27;20047;-78
2021/12/05 12:17:19;;;;;;;7.15;4.25;;;5.60;99.90;;;;;;5156023;27;20441;-79
2021/12/05 12:19:50;;;;;;;8.88;4.43;;;5.50;99.90;;;;;;5137512;27;20078;-76
2021/12/05 12:22:20;;;;;;;5.15;4.38;;;5.50;99.90;;;;;;5134851;27;20047;-78
2021/12/05 12:24:53;;;;;;;5.80;4.18;;;5.50;99.90;;;;;;5155294;27;20035;-74
2021/12/05 12:27:20;;;;;;;6.10;4.20;;;5.50;99.90;;;;;;5150058;27;20047;-77
2021/12/05 12:29:46;;;;;;;4.90;4.05;;;5.50;99.90;;;;;;5126154;27;20050;-74
2021/12/05 12:32:17;;;;;;;8.90;4.97;;;5.50;99.90;;;;;;5137295;27;20042;-77
2021/12/05 12:34:43;;;;;;;7.47;4.85;;;5.50;99.90;;;;;;5155805;27;20054;-73
2021/12/05 12:37:11;;;;;;;7.22;4.55;;;5.40;99.90;;;;;;5137900;27;20050;-77
2021/12/05 12:39:46;;;;;;;5.53;4.93;;;5.40;99.90;;;;;;5155411;27;20115;-76
2021/12/05 12:42:28;;;;;;;6.30;4.63;;;5.50;99.90;;;;;;5154339;27;20099;-76
2021/12/05 12:45:12;;;;;;;7.80;5.10;;;5.50;99.90;;;;;;5133704;27;20051;-75
2021/12/05 12:47:50;;;;;;;5.72;5.15;;;5.50;99.90;;;;;;5155302;27;20129;-75
2021/12/05 12:50:29;;;;;;;7.38;4.95;;;5.60;99.90;;;;;;5155909;27;20122;-75
2021/12/05 12:52:58;;;;;;;7.72;4.88;;;5.50;99.90;;;;;;5155517;27;20050;-75
2021/12/05 12:55:31;;;;;;;5.63;5.00;;;5.60;99.90;;;;;;5156081;27;20450;-75
2021/12/05 12:57:57;;;;;;;7.50;4.75;;;5.60;99.90;;;;;;5155517;27;20103;-75
2021/12/05 13:00:26;;;;;;;5.57;4.60;;;5.60;99.90;;;;;;5156063;27;20047;-75
2021/12/05 13:02:59;;;;;;;7.38;4.70;;;5.70;99.90;;;;;;5155336;27;20050;-75
2021/12/05 13:11:06;;;;;;;6.57;4.35;;;5.70;99.90;;;;;;5155327;27;20046;-75
2021/12/05 13:13:35;;;;;;;4.78;4.38;;;5.70;99.90;;;;;;5155609;27;20034;-75
2021/12/05 13:16:26;;;;;;;5.57;4.35;;;5.70;99.90;;;;;;5155097;27;20612;-75
2021/12/05 13:19:07;;;;;;;5.78;4.18;;;5.70;99.90;;;;;;5155142;27;20179;-75
2021/12/05 13:21:38;;;;;;;6.03;4.68;;;5.70;99.90;;;;;;5155730;27;20054;-76
2021/12/05 13:24:27;;;;;;;6.13;4.40;;;5.70;99.90;;;;;;5155030;27;20053;-75
2021/12/05 13:27:03;;;;;;;6.18;4.47;;;5.80;99.90;;;;;;5155039;27;20126;-75
2021/12/05 13:29:32;;;;;;;5.72;4.38;;;5.80;99.90;;;;;;5137173;27;20409;-75
2021/12/05 13:32:34;;;;;;;6.32;4.32;;;5.80;99.90;;;;;;5154877;27;20043;-75
2021/12/05 13:35:08;;;;;;;6.18;4.70;;;5.80;99.90;;;;;;5150042;27;20499;-75
2021/12/05 13:37:49;;;;;;;8.07;4.57;;;5.80;99.90;;;;;;5155479;27;20054;-75
2021/12/05 13:40:22;;;;;;;6.07;4.50;;;5.80;99.90;;;;;;5154660;27;20125;-76
2021/12/05 13:42:49;;;;;;;6.45;3.90;;;5.80;99.90;;;;;;5155111;27;20113;-75
2021/12/05 13:45:27;;;;;;;5.47;4.28;;;5.70;99.90;;;;;;5154569;27;20051;-76
2021/12/05 13:47:53;;;;;;;4.60;3.70;;;5.70;99.90;;;;;;5154778;27;20058;-75
2021/12/05 13:50:18;;;;;;;4.47;4.07;;;5.70;99.90;;;;;;5154936;27;20053;-75
2021/12/05 13:52:53;;;;;;;5.43;4.18;;;5.70;99.90;;;;;;5154876;27;20050;-75
2021/12/05 13:55:39;;;;;;;5.22;4.35;;;5.70;99.90;;;;;;5155096;27;20381;-75
2021/12/05 13:58:24;;;;;;;4.53;4.10;;;5.70;99.90;;;;;;5154453;27;20043;-75
2021/12/05 14:01:11;;;;;;;6.88;4.50;;;5.70;99.90;;;;;;5154949;27;20050;-76
2021/12/05 14:03:58;;;;;;;5.55;4.32;;;5.70;99.90;;;;;;5154491;27;20428;-76
2021/12/05 14:06:52;;;;;;;6.13;4.82;;;5.60;99.90;;;;;;5154964;27;20099;-75
2021/12/05 14:09:20;;;;;;;5.78;4.72;;;5.60;99.90;;;;;;5153829;27;20043;-75
2021/12/05 14:12:04;;;;;;;7.05;5.75;;;5.70;99.90;;;;;;5154781;27;20047;-75
2021/12/05 14:14:35;;;;;;;6.88;5.55;;;5.60;99.90;;;;;;5154531;27;20039;-76
2021/12/05 14:17:06;;;;;;;6.57;5.47;;;5.60;99.90;;;;;;5154228;27;20556;-75
2021/12/05 14:19:35;;;;;;;8.88;5.57;;;5.60;99.90;;;;;;5154970;27;20042;-76
2021/12/05 14:22:04;;;;;;;8.85;5.38;;;5.60;99.90;;;;;;5154081;27;20427;-75
2021/12/05 14:24:34;;;;;;;6.45;5.30;;;5.60;99.90;;;;;;5154553;27;20051;-75
2021/12/05 14:27:03;;;;;;;5.78;5.22;;;5.50;99.90;;;;;;5154276;27;20051;-75
2021/12/05 14:29:33;;;;;;;5.93;5.00;;;5.50;99.90;;;;;;5154414;27;20472;-75
2021/12/05 14:32:03;;;;;;;5.90;5.30;;;5.50;99.90;;;;;;5154091;27;20046;-75
2021/12/05 14:34:29;;;;;;;6.28;5.20;;;5.50;99.90;;;;;;5154593;27;20043;-75
2021/12/05 14:37:01;;;;;;;11.00;5.95;;;5.50;99.90;;;;;;5154381;27;20048;-76
2021/12/05 14:39:36;;;;;;;8.25;5.88;;;5.50;99.90;;;;;;5136142;27;20100;-75
2021/12/05 14:42:18;;;;;;;8.07;5.93;;;5.40;99.90;;;;;;5153751;27;20487;-74
2021/12/05 14:44:49;;;;;;;7.78;5.55;;;5.40;99.90;;;;;;5154590;27;20125;-75
2021/12/05 14:47:28;;;;;;;7.53;5.55;;;5.40;99.90;;;;;;5153623;27;20133;-75
2021/12/05 14:50:09;;;;;;;7.18;6.00;;;5.40;99.90;;;;;;5153957;27;20566;-76
2021/12/05 14:52:36;;;;;;;7.70;5.75;;;5.40;99.90;;;;;;5153981;27;20563;-75
2021/12/05 14:55:05;;;;;;;6.65;5.93;;;5.40;99.90;;;;;;5153725;27;20034;-75
2021/12/05 14:57:34;;;;;;;9.02;6.35;;;5.30;99.90;;;;;;5154163;27;20064;-75
2021/12/05 15:00:29;;;;;;;9.43;6.53;;;5.40;99.90;;;;;;5153774;27;20039;-73
2021/12/05 15:03:24;;;;;;;8.02;6.47;;;5.40;99.90;;;;;;5142081;27;20053;-75
2021/12/05 15:05:55;;;;;;;10.15;6.65;;;5.30;99.90;;;;;;5154367;27;20047;-75
2021/12/05 15:08:24;;;;;;;8.57;7.10;;;5.30;99.90;;;;;;5153638;27;20047;-75
2021/12/05 15:10:59;;;;;;;8.80;7.32;;;5.30;99.90;;;;;;5154052;27;20046;-76
2021/12/05 15:13:25;;;;;;;8.45;7.35;;;5.20;99.90;;;;;;5153650;27;20066;-75
2021/12/05 15:15:51;;;;;;;9.77;7.50;;;5.20;99.90;;;;;;5154193;27;20403;-75
2021/12/05 15:18:23;;;;;;;9.93;8.25;;;5.20;99.90;;;;;;5153514;27;20046;-75
2021/12/05 15:20:49;;;;;;;11.65;8.55;;;5.30;99.90;;;;;;5136259;27;20057;-76
2021/12/05 15:23:15;;;;;;;13.02;9.15;;;5.20;99.90;;;;;;5157371;27;20066;-75
2021/12/05 15:25:42;;;;;;;13.20;8.85;;;5.10;99.90;;;;;;5157793;27;20043;-75
2021/12/05 15:28:10;;;;;;;10.30;9.20;;;5.10;99.90;;;;;;5157320;27;20047;-75
2021/12/05 15:30:42;;;;;;;11.00;9.90;;;5.10;99.90;;;;;;5157627;27;20129;-75
2021/12/05 15:33:19;;;;;;;12.20;9.45;;;5.10;99.90;;;;;;5157091;27;20391;-75
2021/12/05 15:35:47;;;;;;;13.48;10.23;;;5.10;99.90;;;;;;5157693;27;20051;-75
2021/12/05 15:38:21;;;;;;;11.75;10.13;;;5.10;99.90;;;;;;5157059;27;20055;-75
2021/12/05 15:40:50;;;;;;;12.57;11.25;;;5.00;99.90;;;;;;5139005;27;20103;-75
2021/12/05 15:43:19;;;;;;;13.27;10.65;;;5.00;99.90;;;;;;5156987;27;20039;-75
2021/12/05 15:45:48;;;;;;;14.02;11.70;;;5.00;99.90;;;;;;5156920;27;20547;-75
2021/12/05 15:48:23;;;;;;;15.52;11.80;;;4.90;99.90;;;;;;5156977;27;20133;-75
2021/12/05 15:50:51;;;;;;;13.68;12.23;;;4.90;99.90;;;;;;5157267;27;20046;-75
2021/12/05 15:53:18;;;;;;;14.88;12.43;;;4.90;99.90;;;;;;5138415;27;20038;-75
2021/12/05 15:55:47;;;;;;;15.32;12.35;;;4.90;99.90;;;;;;5138980;27;20103;-75
2021/12/05 15:58:23;;;;;;;14.73;12.80;;;4.90;99.90;;;;;;5156813;27;20050;-75
2021/12/05 16:01:06;;;;;;;16.65;13.23;;;4.90;99.90;;;;;;5157143;27;20055;-75
2021/12/05 16:03:44;;;;;;;15.23;11.68;;;4.90;99.90;;;;;;5156719;27;20510;-75
2021/12/05 16:06:15;;;;;;;13.05;11.65;;;4.90;99.90;;;;;;5138487;27;20078;-74
2021/12/05 16:08:43;;;;;;;16.08;12.15;;;4.90;99.90;;;;;;5157207;27;20100;-75
2021/12/05 16:11:16;;;;;;;15.57;12.32;;;4.90;99.90;;;;;;5156362;27;20479;-74
2021/12/05 16:13:43;;;;;;;16.38;14.05;;;4.90;99.90;;;;;;5157032;27;20035;-75
2021/12/05 16:16:15;;;;;;;14.63;12.30;;;4.80;99.90;;;;;;5156851;27;20099;-75
2021/12/05 16:18:43;;;;;;;13.50;11.48;;;4.80;99.90;;;;;;5156889;27;20038;-75
2021/12/05 16:21:28;;;;;;;14.30;11.30;;;4.90;99.90;;;;;;5156387;27;20491;-75
2021/12/05 16:23:56;;;;;;;13.10;11.65;;;4.80;99.90;;;;;;5138226;27;20099;-75
2021/12/05 16:26:27;;;;;;;13.35;11.02;;;4.80;99.90;;;;;;5156141;27;20043;-75
2021/12/05 16:28:55;;;;;;;;;;;4.80;99.90;;;;;;5157129;27;20057;-75
2021/12/05 16:31:33;;;;;;;12.80;11.40;;;4.80;99.90;;;;;;5137440;27;19923;-75
2021/12/05 16:34:09;;;;;;;15.55;12.00;;;4.70;99.90;;;;;;5156389;27;20074;-76
2021/12/05 16:36:42;;;;;;;16.77;12.25;;;4.80;99.90;;;;;;5155976;27;20068;-76
2021/12/05 16:39:12;;;;;;;14.23;12.23;;;4.80;99.90;;;;;;5156397;27;20058;-75
2021/12/05 16:41:54;;;;;;;15.73;12.38;;;4.70;99.90;;;;;;5156308;27;20046;-76
2021/12/05 16:44:26;;;;;;;15.10;12.30;;;4.70;99.90;;;;;;5155955;27;20050;-75
2021/12/05 16:46:57;;;;;;;15.98;12.38;;;4.70;99.90;;;;;;5156256;27;20131;-75
2021/12/05 16:49:26;;;;;;;14.52;12.45;;;4.70;99.90;;;;;;5155816;27;20432;-75
2021/12/05 16:51:52;;;;;;;16.45;12.55;;;4.70;99.90;;;;;;5156141;27;20053;-75
2021/12/05 16:54:25;;;;;;;16.65;13.07;;;4.70;99.90;;;;;;5155538;27;20042;-75
2021/12/05 16:56:58;;;;;;;17.20;13.10;;;4.70;99.90;;;;;;5156228;27;20054;-75
2021/12/05 16:59:29;;;;;;;15.93;12.73;;;4.80;99.90;;;;;;5155476;27;20123;-75
2021/12/05 17:02:25;;;;;;;16.35;13.25;;;4.80;99.90;;;;;;5137835;27;20047;-76
2021/12/05 17:05:06;;;;;;;15.95;13.50;;;4.80;99.90;;;;;;5155998;27;20107;-75
2021/12/05 17:07:44;;;;;;;16.13;13.15;;;4.80;99.90;;;;;;5137210;27;20399;-75
2021/12/05 17:10:25;;;;;;;17.98;14.27;;;4.80;99.90;;;;;;5155885;27;20051;-75
2021/12/05 17:13:15;;;;;;;17.70;14.52;;;4.80;99.90;;;;;;5155618;27;20054;-76
2021/12/05 17:15:48;;;;;;;21.08;14.38;;;4.80;99.90;;;;;;5155494;27;20494;-75
2021/12/05 17:18:21;;;;;;;18.70;14.68;;;4.80;99.90;;;;;;5155599;27;20372;-75
2021/12/05 17:20:51;;;;;;;19.02;15.80;;;4.80;99.90;;;;;;5155519;27;20053;-75
2021/12/05 17:23:25;;;;;;;21.70;14.77;;;4.90;99.90;;;;;;5155274;27;20042;-74
2021/12/05 17:25:54;;;;;;;21.48;15.07;;;4.80;99.90;;;;;;5155517;27;20107;-75
2021/12/05 17:28:40;;;;;;;19.42;15.80;;;4.90;99.90;;;;;;5154867;27;20498;-75
2021/12/05 17:31:09;;;;;;;24.33;16.65;;;4.90;99.90;;;;;;5155803;27;20050;-75
2021/12/05 17:33:48;;;;;;;22.65;16.88;;;4.90;99.90;;;;;;5154771;27;20042;-76
2021/12/05 17:36:27;;;;;;;21.30;16.75;;;4.80;99.90;;;;;;5155243;27;20061;-75
2021/12/05 17:38:57;;;;;;;26.23;17.35;;;4.90;99.90;;;;;;5155282;27;20129;-75
2021/12/05 17:41:26;;;;;;;26.23;17.85;;;4.90;99.90;;;;;;5154868;27;20047;-75
2021/12/05 17:43:52;;;;;;;25.75;17.30;;;4.80;99.90;;;;;;5136203;27;20046;-75
2021/12/05 17:46:18;;;;;;;29.00;18.73;;;4.90;99.90;;;;;;5154735;27;20057;-75
2021/12/05 17:48:44;;;;;;;28.30;18.00;;;4.90;99.90;;;;;;5155162;27;20059;-75
2021/12/05 17:51:10;;;;;;;27.92;18.27;;;4.90;99.90;;;;;;5136428;27;20378;-75
2021/12/05 17:53:38;;;;;;;28.52;17.95;;;4.80;99.90;;;;;;5154386;27;20038;-75
2021/12/05 17:56:33;;;;;;;27.80;18.88;;;4.80;99.90;;;;;;5136636;27;20125;-75
2021/12/05 17:59:12;;;;;;;30.10;18.10;;;4.90;99.90;;;;;;5152991;27;20091;-83
2021/12/05 18:04:29;;;;;;;28.98;18.75;;;4.90;99.90;;;;;;5134673;27;20112;-75
2021/12/05 18:06:55;;;;;;;28.20;18.75;;;4.90;99.90;;;;;;5153843;27;20053;-75
2021/12/05 18:09:22;;;;;;;33.45;18.58;;;4.80;99.90;;;;;;5153297;27;20070;-76
2021/12/05 18:11:49;;;;;;;28.63;18.50;;;4.90;99.90;;;;;;5135042;27;20046;-76
2021/12/05 18:14:15;;;;;;;30.30;19.65;;;4.90;99.90;;;;;;5153469;27;20042;-75
2021/12/05 18:16:40;;;;;;;30.38;19.15;;;5.00;99.90;;;;;;5146152;27;20089;-75
2021/12/05 18:19:13;;;;;;;32.25;20.05;;;5.00;99.90;;;;;;5138027;27;20500;-75
2021/12/05 18:21:41;;;;;;;28.55;19.98;;;5.00;99.90;;;;;;5153189;27;20081;-75
2021/12/05 18:24:10;;;;;;;30.83;19.95;;;5.00;99.90;;;;;;5153596;27;20074;-75
2021/12/05 18:26:37;;;;;;;32.38;20.08;;;5.00;99.90;;;;;;5153575;27;20049;-76
2021/12/05 18:29:05;;;;;;;30.02;19.52;;;5.00;99.90;;;;;;5153970;27;20080;-76
2021/12/05 18:31:34;;;;;;;31.92;20.15;;;5.10;99.90;;;;;;5153281;27;20093;-75